createdAt,value
2023-05-02T00:00:47.152Z,13.88
2023-05-02T00:03:13.791Z,13.40
2023-05-02T00:05:40.746Z,11.55
2023-05-02T00:08:07.114Z,12.30
2023-05-02T00:10:35.172Z,11.00
2023-05-02T00:13:01.480Z,11.90
2023-05-02T00:15:27.945Z,12.32
2023-05-02T00:17:54.364Z,11.48
2023-05-02T00:20:20.873Z,13.00
2023-05-02T00:22:47.212Z,13.38
2023-05-02T00:25:16.183Z,17.67
2023-05-02T00:27:43.944Z,17.80
2023-05-02T00:30:10.524Z,17.95
2023-05-02T00:32:36.979Z,17.52
2023-05-02T00:35:03.592Z,17.83
2023-05-02T00:37:29.904Z,18.55
2023-05-02T00:39:56.237Z,18.60
2023-05-02T00:42:22.815Z,19.90
2023-05-02T00:44:49.304Z,20.35
2023-05-02T00:47:15.850Z,20.70
2023-05-02T00:49:42.186Z,22.48
2023-05-02T00:52:08.910Z,23.23
2023-05-02T00:54:39.160Z,24.08
2023-05-02T00:57:05.793Z,24.03
2023-05-02T00:59:33.525Z,26.65
2023-05-02T01:02:18.134Z,27.25
2023-05-02T01:05:10.305Z,28.23
2023-05-02T01:08:23.761Z,27.77
2023-05-02T01:11:03.650Z,26.85
2023-05-02T01:13:34.768Z,27.90
2023-05-02T01:18:32.808Z,27.70
2023-05-02T01:21:03.000Z,28.83
2023-05-02T01:23:45.990Z,31.50
2023-05-02T01:26:23.281Z,29.30
2023-05-02T01:28:59.601Z,29.52
2023-05-02T01:31:29.021Z,28.85
2023-05-02T01:33:56.617Z,29.50
2023-05-02T01:36:25.602Z,30.90
2023-05-02T01:38:52.916Z,29.10
2023-05-02T01:41:20.839Z,29.98
2023-05-02T01:43:48.037Z,30.10
2023-05-02T01:46:15.467Z,28.63
2023-05-02T01:48:46.482Z,30.25
2023-05-02T01:51:18.598Z,30.15
2023-05-02T01:53:48.074Z,30.88
2023-05-02T01:56:18.567Z,30.40
2023-05-02T01:58:47.528Z,30.60
2023-05-02T02:01:15.263Z,31.48
2023-05-02T02:03:42.814Z,29.13
2023-05-02T02:06:10.504Z,29.23
2023-05-02T02:08:36.955Z,30.40
2023-05-02T02:11:10.615Z,30.42
2023-05-02T02:13:45.141Z,30.65
2023-05-02T02:16:14.065Z,27.27
2023-05-02T02:18:44.779Z,27.52
2023-05-02T02:21:11.838Z,27.08
2023-05-02T02:23:39.677Z,28.33
2023-05-02T02:26:08.189Z,28.00
2023-05-02T02:28:36.006Z,29.02
2023-05-02T02:31:02.361Z,31.58
2023-05-02T02:33:31.117Z,33.28
2023-05-02T02:36:08.434Z,31.90
2023-05-02T02:38:44.400Z,32.70
2023-05-02T02:41:22.273Z,29.45
2023-05-02T02:44:11.046Z,29.55
2023-05-02T02:47:11.393Z,28.90
2023-05-02T02:49:37.707Z,33.05
2023-05-02T02:52:14.256Z,30.55
2023-05-02T02:54:48.731Z,29.17
2023-05-02T02:57:18.952Z,25.95
2023-05-02T02:59:59.861Z,29.88
2023-05-02T03:02:30.791Z,26.50
2023-05-02T03:04:58.238Z,27.42
2023-05-02T03:07:27.830Z,28.02
2023-05-02T03:09:55.002Z,33.88
2023-05-02T03:12:23.906Z,31.05
2023-05-02T03:14:50.996Z,31.42
2023-05-02T03:17:17.770Z,32.83
2023-05-02T03:19:45.135Z,35.88
2023-05-02T03:22:12.291Z,34.08
2023-05-02T03:24:39.706Z,35.45
2023-05-02T03:27:06.226Z,31.27
2023-05-02T03:29:38.763Z,35.45
2023-05-02T03:32:05.772Z,38.25
2023-05-02T03:34:32.847Z,37.97
2023-05-02T03:36:59.566Z,41.10
2023-05-02T03:39:26.100Z,39.13
2023-05-02T03:41:52.615Z,40.03
2023-05-02T03:44:22.258Z,46.72
2023-05-02T03:46:48.786Z,54.25
2023-05-02T03:49:15.417Z,56.85
2023-05-02T03:51:44.553Z,56.47
2023-05-02T03:54:11.984Z,58.13
2023-05-02T03:56:42.744Z,60.50
2023-05-02T03:59:19.578Z,57.60
2023-05-02T04:01:50.353Z,58.05
2023-05-02T04:04:17.982Z,59.72
2023-05-02T04:06:49.205Z,57.97
2023-05-02T04:09:16.431Z,57.40
2023-05-02T04:11:49.694Z,60.95
2023-05-02T04:14:16.042Z,61.05
2023-05-02T04:16:51.352Z,61.42
2023-05-02T04:19:23.974Z,60.55
2023-05-02T04:21:50.313Z,61.83
2023-05-02T04:24:17.467Z,59.38
2023-05-02T04:26:44.688Z,61.53
2023-05-02T04:29:13.452Z,61.90
2023-05-02T04:31:41.009Z,63.38
2023-05-02T04:34:07.613Z,66.78
2023-05-02T04:36:40.287Z,64.03
2023-05-02T04:39:10.610Z,66.00
2023-05-02T04:41:40.774Z,63.58
2023-05-02T04:44:07.315Z,62.17
2023-05-02T04:46:34.867Z,62.20
2023-05-02T04:49:01.336Z,67.57
2023-05-02T04:51:29.028Z,66.88
2023-05-02T04:53:55.521Z,66.20
2023-05-02T04:56:22.132Z,62.95
2023-05-02T04:58:49.251Z,64.43
2023-05-02T05:01:16.723Z,64.80
2023-05-02T05:03:43.660Z,63.30
2023-05-02T05:06:10.118Z,64.93
2023-05-02T05:08:36.975Z,63.13
2023-05-02T05:11:05.284Z,66.18
2023-05-02T05:13:32.540Z,64.28
2023-05-02T05:15:59.073Z,63.92
2023-05-02T05:18:28.647Z,63.20
2023-05-02T05:20:55.174Z,64.82
2023-05-02T05:23:21.573Z,63.15
2023-05-02T05:25:47.992Z,62.42
2023-05-02T05:28:18.357Z,63.92
2023-05-02T05:30:44.701Z,61.25
2023-05-02T05:33:15.244Z,65.22
2023-05-02T05:35:42.209Z,62.88
2023-05-02T05:38:09.200Z,62.17
2023-05-02T05:40:37.510Z,59.20
2023-05-02T05:43:05.203Z,59.33
2023-05-02T05:45:35.638Z,61.17
2023-05-02T05:48:04.017Z,59.95
2023-05-02T05:50:33.643Z,57.50
2023-05-02T05:53:00.636Z,57.97
2023-05-02T05:55:27.680Z,54.92
2023-05-02T05:57:57.169Z,53.58
2023-05-02T06:00:23.642Z,61.30
2023-05-02T06:02:51.738Z,58.10
2023-05-02T06:05:26.413Z,55.72
2023-05-02T06:07:53.124Z,52.55
2023-05-02T06:10:19.417Z,52.13
2023-05-02T06:12:47.272Z,53.60
2023-05-02T06:15:16.855Z,52.03
2023-05-02T06:17:43.418Z,53.40
2023-05-02T06:20:10.105Z,49.15
2023-05-02T06:22:37.098Z,51.08
2023-05-02T06:25:05.185Z,48.58
2023-05-02T06:27:33.546Z,53.17
2023-05-02T06:30:00.373Z,48.30
2023-05-02T06:32:31.942Z,48.40
2023-05-02T06:34:58.280Z,47.63
2023-05-02T06:37:24.661Z,48.92
2023-05-02T06:39:50.987Z,46.13
2023-05-02T06:42:17.336Z,47.92
2023-05-02T06:44:43.614Z,48.47
2023-05-02T06:47:09.974Z,45.95
2023-05-02T06:49:36.351Z,46.65
2023-05-02T06:52:02.706Z,42.70
2023-05-02T06:54:29.104Z,36.05
2023-05-02T06:56:55.552Z,33.97
2023-05-02T06:59:21.900Z,35.10
2023-05-02T07:01:48.236Z,34.60
2023-05-02T07:04:14.652Z,31.10
2023-05-02T07:06:41.092Z,30.73
2023-05-02T07:09:07.394Z,29.35
2023-05-02T07:11:33.898Z,29.55
2023-05-02T07:14:00.334Z,27.33
2023-05-02T07:16:26.749Z,27.55
2023-05-02T07:18:53.184Z,30.15
2023-05-02T07:21:19.484Z,28.75
2023-05-02T07:23:45.900Z,29.17
2023-05-02T07:26:12.272Z,29.58
2023-05-02T07:28:38.577Z,30.67
2023-05-02T07:31:04.896Z,30.85
2023-05-02T07:33:31.251Z,31.30
2023-05-02T07:35:57.772Z,31.88
2023-05-02T07:38:24.132Z,30.88
2023-05-02T07:40:50.562Z,33.03
2023-05-02T07:43:16.986Z,30.98
2023-05-02T07:45:44.034Z,30.60
2023-05-02T07:48:11.726Z,32.08
2023-05-02T07:50:38.640Z,30.77
2023-05-02T07:53:05.028Z,29.08
2023-05-02T07:55:33.062Z,41.20
2023-05-02T07:58:00.376Z,33.83
2023-05-02T08:00:26.754Z,28.50
2023-05-02T08:02:53.118Z,26.83
2023-05-02T08:05:19.580Z,29.33
2023-05-02T08:07:46.387Z,26.70
2023-05-02T08:10:12.779Z,27.17
2023-05-02T08:12:40.245Z,26.02
2023-05-02T08:15:08.094Z,25.05
2023-05-02T08:17:34.420Z,26.55
2023-05-02T08:20:04.158Z,25.27
2023-05-02T08:22:30.550Z,25.65
2023-05-02T08:24:56.836Z,24.80
2023-05-02T08:27:23.189Z,25.08
2023-05-02T08:29:49.669Z,25.58
2023-05-02T08:32:16.086Z,27.92
2023-05-02T08:34:42.582Z,27.83
2023-05-02T08:37:09.981Z,27.08
2023-05-02T08:39:36.266Z,24.58
2023-05-02T08:42:06.763Z,27.73
2023-05-02T08:44:33.183Z,26.48
2023-05-02T08:47:00.315Z,25.00
2023-05-02T08:49:30.716Z,27.23
2023-05-02T08:51:59.403Z,27.48
2023-05-02T08:54:26.927Z,27.17
2023-05-02T08:56:57.073Z,25.08
2023-05-02T08:59:23.366Z,26.35
2023-05-02T09:01:55.084Z,24.42
2023-05-02T09:04:24.194Z,23.17
2023-05-02T09:06:50.559Z,24.48
2023-05-02T09:09:17.783Z,21.70
2023-05-02T09:11:47.056Z,21.70
2023-05-02T09:14:17.648Z,20.65
2023-05-02T09:16:44.610Z,20.83
2023-05-02T09:19:23.203Z,19.48
2023-05-02T09:21:49.847Z,20.17
2023-05-02T09:24:21.180Z,19.95
2023-05-02T09:27:04.706Z,20.77
2023-05-02T09:29:37.645Z,21.88
2023-05-02T09:32:07.234Z,20.90
2023-05-02T09:34:33.963Z,21.00
2023-05-02T09:37:01.357Z,21.65
2023-05-02T09:39:31.792Z,20.52
2023-05-02T09:41:59.180Z,21.20
2023-05-02T09:44:36.095Z,18.77
2023-05-02T09:47:02.514Z,20.13
2023-05-02T09:49:44.639Z,19.60
2023-05-02T09:52:15.881Z,19.98
2023-05-02T09:54:42.606Z,21.20
2023-05-02T09:57:10.552Z,19.30
2023-05-02T09:59:36.947Z,17.35
2023-05-02T10:02:05.398Z,17.95
2023-05-02T10:04:33.338Z,18.27
2023-05-02T10:07:01.635Z,17.42
2023-05-02T10:09:32.242Z,18.88
2023-05-02T10:12:06.476Z,18.75
2023-05-02T10:14:38.374Z,19.50
2023-05-02T10:17:16.361Z,16.73
2023-05-02T10:19:56.785Z,17.02
2023-05-02T10:22:23.616Z,14.93
2023-05-02T10:24:50.503Z,12.77
2023-05-02T10:27:17.090Z,12.05
2023-05-02T10:29:44.709Z,11.65
2023-05-02T10:32:11.852Z,11.98
2023-05-02T10:34:40.272Z,11.35
2023-05-02T10:37:06.560Z,9.95
2023-05-02T10:39:33.181Z,8.95
2023-05-02T10:42:02.148Z,10.00
2023-05-02T10:44:39.639Z,10.15
2023-05-02T10:47:26.723Z,8.48
2023-05-02T10:50:01.786Z,7.88
2023-05-02T10:52:31.705Z,8.98
2023-05-02T10:55:18.018Z,7.80
2023-05-02T10:57:59.728Z,7.53
2023-05-02T11:00:28.122Z,7.40
2023-05-02T11:02:54.608Z,6.57
2023-05-02T11:05:22.989Z,6.75
2023-05-02T11:07:49.495Z,6.30
2023-05-02T11:10:20.141Z,5.63
2023-05-02T11:12:48.954Z,8.45
2023-05-02T11:15:38.247Z,7.63
2023-05-02T11:18:09.067Z,5.47
2023-05-02T11:20:36.958Z,4.97
2023-05-02T11:23:15.779Z,5.90
2023-05-02T11:25:43.267Z,6.47
2023-05-02T11:28:38.926Z,7.70
2023-05-02T11:31:06.501Z,7.57
2023-05-02T11:33:32.923Z,7.13
2023-05-02T11:35:59.637Z,8.02
2023-05-02T11:38:34.680Z,7.32
2023-05-02T11:41:02.633Z,7.40
2023-05-02T11:43:31.479Z,6.70
2023-05-02T11:45:59.881Z,6.82
2023-05-02T11:48:27.404Z,9.30
2023-05-02T11:50:57.501Z,8.90
2023-05-02T11:53:25.973Z,8.48
2023-05-02T11:55:55.172Z,8.45
2023-05-02T11:58:24.638Z,9.50
2023-05-02T12:00:52.598Z,10.07
2023-05-02T12:03:33.225Z,9.57
2023-05-02T12:06:14.394Z,10.65
2023-05-02T12:08:44.328Z,9.73
2023-05-02T12:11:15.411Z,8.65
2023-05-02T12:16:12.758Z,11.07
2023-05-02T12:18:39.397Z,11.93
2023-05-02T12:21:06.110Z,12.02
2023-05-02T12:23:33.997Z,12.55
2023-05-02T12:26:33.913Z,13.38
2023-05-02T12:29:02.430Z,11.77
2023-05-02T12:31:31.065Z,11.60
2023-05-02T12:33:59.420Z,10.68
2023-05-02T12:36:29.313Z,9.77
2023-05-02T12:38:59.197Z,9.63
2023-05-02T12:41:38.137Z,10.20
2023-05-02T12:44:05.974Z,9.60
2023-05-02T12:46:32.864Z,9.27
2023-05-02T12:49:05.139Z,11.15
2023-05-02T12:51:32.770Z,9.85
2023-05-02T12:53:59.066Z,9.82
2023-05-02T12:56:31.836Z,9.45
2023-05-02T12:59:01.223Z,9.52
2023-05-02T13:01:28.502Z,10.18
2023-05-02T13:03:54.967Z,9.05
2023-05-02T13:06:21.301Z,10.30
2023-05-02T13:08:47.610Z,9.68
2023-05-02T13:11:14.646Z,8.35
2023-05-02T13:13:41.010Z,8.63
2023-05-02T13:16:08.140Z,9.07
2023-05-02T13:18:34.707Z,8.82
2023-05-02T13:21:01.034Z,8.77
2023-05-02T13:23:27.456Z,8.52
2023-05-02T13:25:53.726Z,9.52
2023-05-02T13:28:20.016Z,8.65
2023-05-02T13:30:46.361Z,10.20
2023-05-02T13:33:12.825Z,9.57
2023-05-02T13:35:39.303Z,9.05
2023-05-02T13:38:05.657Z,12.32
2023-05-02T13:40:32.089Z,12.10
2023-05-02T13:42:58.594Z,12.13
2023-05-02T13:45:24.991Z,10.70
2023-05-02T13:47:51.345Z,9.75
2023-05-02T13:50:17.733Z,8.95
2023-05-02T13:52:44.183Z,9.65
2023-05-02T13:55:10.585Z,9.32
2023-05-02T13:57:36.951Z,7.60
2023-05-02T14:00:04.371Z,7.88
2023-05-02T14:02:31.679Z,7.05
2023-05-02T14:04:58.132Z,6.68
2023-05-02T14:07:24.409Z,7.30
2023-05-02T14:09:50.711Z,6.10
2023-05-02T14:12:17.042Z,5.68
2023-05-02T14:14:43.399Z,5.47
2023-05-02T14:17:09.734Z,5.47
2023-05-02T14:19:36.264Z,5.45
2023-05-02T14:22:02.568Z,5.25
2023-05-02T14:24:28.894Z,5.63
2023-05-02T14:26:55.161Z,5.43
2023-05-02T14:29:21.562Z,6.00
2023-05-02T14:31:48.000Z,5.90
2023-05-02T14:34:14.378Z,6.22
2023-05-02T14:36:40.809Z,6.93
2023-05-02T14:39:07.202Z,5.97
2023-05-02T14:41:33.512Z,5.68
2023-05-02T14:43:59.847Z,5.82
2023-05-02T14:46:26.234Z,5.50
2023-05-02T14:48:52.733Z,5.95
2023-05-02T14:51:19.064Z,5.80
2023-05-02T14:53:47.792Z,6.32
2023-05-02T14:56:15.856Z,6.50
2023-05-02T14:58:42.182Z,6.80
2023-05-02T15:01:19.389Z,6.00
2023-05-02T15:04:04.532Z,7.32
2023-05-02T15:06:32.984Z,8.00
2023-05-02T15:08:59.430Z,7.22
2023-05-02T15:11:25.830Z,7.60
2023-05-02T15:13:52.354Z,6.55
2023-05-02T15:16:18.752Z,6.68
2023-05-02T15:18:45.307Z,6.78
2023-05-02T15:21:11.889Z,7.35
2023-05-02T15:23:38.190Z,7.15
2023-05-02T15:26:04.693Z,7.35
2023-05-02T15:28:31.185Z,7.38
2023-05-02T15:30:57.515Z,7.57
2023-05-02T15:33:23.876Z,7.15
2023-05-02T15:35:55.449Z,7.30
2023-05-02T15:38:22.122Z,6.47
2023-05-02T15:40:59.271Z,6.90
2023-05-02T15:43:26.586Z,6.43
2023-05-02T15:45:57.701Z,5.68
2023-05-02T15:50:53.146Z,6.05
2023-05-02T15:53:23.345Z,5.80
2023-05-02T15:55:51.104Z,6.82
2023-05-02T15:58:18.306Z,6.85
2023-05-02T16:00:45.295Z,6.32
2023-05-02T16:03:12.238Z,7.03
2023-05-02T16:05:39.064Z,7.13
2023-05-02T16:08:05.873Z,8.02
2023-05-02T16:10:32.267Z,6.95
2023-05-02T16:12:58.730Z,8.00
2023-05-02T16:15:26.229Z,8.75
2023-05-02T16:17:52.670Z,7.57
2023-05-02T16:20:19.417Z,8.25
2023-05-02T16:22:46.796Z,8.13
2023-05-02T16:25:13.857Z,8.48
2023-05-02T16:27:40.836Z,8.50
2023-05-02T16:30:08.528Z,8.02
2023-05-02T16:32:37.234Z,7.82
2023-05-02T16:35:10.507Z,8.50
2023-05-02T16:37:37.007Z,7.47
2023-05-02T16:40:05.432Z,6.88
2023-05-02T16:42:32.449Z,8.00
2023-05-02T16:44:58.815Z,8.85
2023-05-02T16:47:25.238Z,26.88
2023-05-02T16:49:55.557Z,16.27
2023-05-02T16:52:22.201Z,11.32
2023-05-02T16:54:48.872Z,9.68
2023-05-02T16:57:19.765Z,8.98
2023-05-02T16:59:51.071Z,7.72
2023-05-02T17:04:45.278Z,7.07
2023-05-02T17:07:12.240Z,6.75
2023-05-02T17:09:39.535Z,8.07
2023-05-02T17:12:07.290Z,8.50
2023-05-02T17:14:33.732Z,9.63
2023-05-02T17:17:01.240Z,22.08
2023-05-02T17:19:27.741Z,11.43
2023-05-02T17:21:54.222Z,6.55
2023-05-02T17:24:21.068Z,5.78
2023-05-02T17:26:47.477Z,5.10
2023-05-02T17:29:13.876Z,6.07
2023-05-02T17:31:40.680Z,6.57
2023-05-02T17:34:07.233Z,5.63
2023-05-02T17:36:33.767Z,7.40
2023-05-02T17:39:00.107Z,8.02
2023-05-02T17:41:26.801Z,8.35
2023-05-02T17:43:53.150Z,7.55
2023-05-02T17:46:19.514Z,8.75
2023-05-02T17:48:45.905Z,6.78
2023-05-02T17:51:12.516Z,7.57
2023-05-02T17:53:39.270Z,11.32
2023-05-02T17:56:05.927Z,9.73
2023-05-02T17:58:32.705Z,10.05
2023-05-02T18:01:10.864Z,10.00
2023-05-02T18:03:38.576Z,13.45
2023-05-02T18:06:05.278Z,6.93
2023-05-02T18:08:31.714Z,7.25
2023-05-02T18:10:58.983Z,8.25
2023-05-02T18:13:26.135Z,8.07
2023-05-02T18:15:57.019Z,7.15
2023-05-02T18:18:23.783Z,7.05
2023-05-02T18:20:50.271Z,7.80
2023-05-02T18:23:16.944Z,7.75
2023-05-02T18:25:43.878Z,8.13
2023-05-02T18:28:10.218Z,6.88
2023-05-02T18:30:39.951Z,6.95
2023-05-02T18:33:07.470Z,7.07
2023-05-02T18:35:33.869Z,6.28
2023-05-02T18:38:00.235Z,6.47
2023-05-02T18:40:27.071Z,7.35
2023-05-02T18:42:53.409Z,8.27
2023-05-02T18:45:19.769Z,7.60
2023-05-02T18:47:46.286Z,8.85
2023-05-02T18:50:12.790Z,8.00
2023-05-02T18:52:39.160Z,6.97
2023-05-02T18:55:06.052Z,8.75
2023-05-02T18:57:33.721Z,8.82
2023-05-02T19:00:00.349Z,7.07
2023-05-02T19:02:27.151Z,7.10
2023-05-02T19:04:53.572Z,6.40
2023-05-02T19:07:19.998Z,28.98
2023-05-02T19:09:46.344Z,39.85
2023-05-02T19:12:12.655Z,22.77
2023-05-02T19:14:40.106Z,19.35
2023-05-02T19:17:06.591Z,11.65
2023-05-02T19:19:33.081Z,18.88
2023-05-02T19:21:59.526Z,16.83
2023-05-02T19:24:26.244Z,15.95
2023-05-02T19:26:53.150Z,10.50
2023-05-02T19:29:19.527Z,11.38
2023-05-02T19:31:46.189Z,39.13
2023-05-02T19:34:12.613Z,19.20
2023-05-02T19:36:39.018Z,13.82
2023-05-02T19:39:05.557Z,8.45
2023-05-02T19:41:31.922Z,11.32
2023-05-02T19:43:59.764Z,21.10
2023-05-02T19:46:26.320Z,20.23
2023-05-02T19:48:52.742Z,11.18
2023-05-02T19:51:25.036Z,8.55
2023-05-02T19:53:52.583Z,8.40
2023-05-02T19:56:19.900Z,8.35
2023-05-02T19:58:46.540Z,10.55
2023-05-02T20:01:13.573Z,8.07
2023-05-02T20:03:40.061Z,12.27
2023-05-02T20:06:06.506Z,8.77
2023-05-02T20:08:32.829Z,8.18
2023-05-02T20:10:59.160Z,9.32
2023-05-02T20:13:25.538Z,13.82
2023-05-02T20:15:53.161Z,10.73
2023-05-02T20:18:20.231Z,15.27
2023-05-02T20:20:46.587Z,10.70
2023-05-02T20:23:13.277Z,8.70
2023-05-02T20:25:40.565Z,6.88
2023-05-02T20:28:08.894Z,10.07
2023-05-02T20:30:35.503Z,8.15
2023-05-02T20:33:13.927Z,8.85
2023-05-02T20:35:40.925Z,8.55
2023-05-02T20:38:07.362Z,10.88
2023-05-02T20:40:33.830Z,9.15
2023-05-02T20:43:01.732Z,8.98
2023-05-02T20:45:28.251Z,8.10
2023-05-02T20:47:54.591Z,22.08
2023-05-02T20:50:21.089Z,14.18
2023-05-02T20:52:47.401Z,11.32
2023-05-02T20:55:13.686Z,14.93
2023-05-02T20:57:40.004Z,13.27
2023-05-02T21:00:06.875Z,10.65
2023-05-02T21:02:33.584Z,29.25
2023-05-02T21:04:59.964Z,40.10
2023-05-02T21:07:26.440Z,15.38
2023-05-02T21:09:52.783Z,14.93
2023-05-02T21:12:19.391Z,12.43
2023-05-02T21:14:45.719Z,18.45
2023-05-02T21:17:12.020Z,23.42
2023-05-02T21:19:38.339Z,13.70
2023-05-02T21:22:04.666Z,9.40
2023-05-02T21:24:31.185Z,12.13
2023-05-02T21:26:58.505Z,9.20
2023-05-02T21:29:24.831Z,15.95
2023-05-02T21:31:52.661Z,11.27
2023-05-02T21:34:21.067Z,18.95
2023-05-02T21:36:47.406Z,23.17
2023-05-02T21:39:13.752Z,15.57
2023-05-02T21:41:40.122Z,10.60
2023-05-02T21:44:06.472Z,10.45
2023-05-02T21:46:33.047Z,8.68
2023-05-02T21:48:59.425Z,7.55
2023-05-02T21:51:25.751Z,7.15
2023-05-02T21:53:52.803Z,6.93
2023-05-02T21:56:19.115Z,6.50
2023-05-02T21:58:47.613Z,7.75
2023-05-02T22:01:13.952Z,6.45
2023-05-02T22:03:40.734Z,6.72
2023-05-02T22:06:07.149Z,6.78
2023-05-02T22:08:33.516Z,6.28
2023-05-02T22:10:59.941Z,7.15
2023-05-02T22:13:26.820Z,6.60
2023-05-02T22:15:53.145Z,6.22
2023-05-02T22:18:19.511Z,6.28
2023-05-02T22:20:47.100Z,6.68
2023-05-02T22:23:13.545Z,6.78
2023-05-02T22:25:42.101Z,6.45
2023-05-02T22:28:11.286Z,6.82
2023-05-02T22:30:44.635Z,6.70
2023-05-02T22:33:11.918Z,6.30
2023-05-02T22:35:38.432Z,6.45
2023-05-02T22:38:08.833Z,6.57
2023-05-02T22:40:35.616Z,6.57
2023-05-02T22:43:01.968Z,6.75
2023-05-02T22:45:28.387Z,6.22
2023-05-02T22:47:55.165Z,6.25
2023-05-02T22:50:22.101Z,6.47
2023-05-02T22:52:49.404Z,6.80
2023-05-02T22:55:16.369Z,7.18
2023-05-02T22:57:43.384Z,6.50
2023-05-02T23:00:10.881Z,6.43
2023-05-02T23:02:37.433Z,6.57
2023-05-02T23:05:04.442Z,7.22
2023-05-02T23:07:30.818Z,6.45
2023-05-02T23:09:57.139Z,9.13
2023-05-02T23:12:23.600Z,11.02
2023-05-02T23:14:49.909Z,18.42
2023-05-02T23:17:16.258Z,13.48
2023-05-02T23:19:42.573Z,12.25
2023-05-02T23:22:09.003Z,8.00
2023-05-02T23:24:35.473Z,7.75
2023-05-02T23:27:01.805Z,7.40
2023-05-02T23:29:28.466Z,5.97
2023-05-02T23:31:55.427Z,6.78
2023-05-02T23:34:22.127Z,5.65
2023-05-02T23:36:48.739Z,6.30
2023-05-02T23:39:16.112Z,5.88
2023-05-02T23:41:42.528Z,5.95
2023-05-02T23:44:08.889Z,6.40
2023-05-02T23:46:35.217Z,5.90
2023-05-02T23:49:01.720Z,5.50
2023-05-02T23:51:28.376Z,6.57
2023-05-02T23:53:54.947Z,5.80
2023-05-02T23:56:21.384Z,6.90
2023-05-02T23:58:47.743Z,5.53
